sensor_id;sensor_type;location;lat;lon;timestamp;pressure;altitude;pressure_sealevel;temperature
53512;BMP280;39392;52.832;13.816;2022-07-30T00:01:43;101497.59;;;24.03
53512;BMP280;39392;52.832;13.816;2022-07-30T00:04:09;101493.00;;;24.04
53512;BMP280;39392;52.832;13.816;2022-07-30T00:06:36;101490.88;;;24.06
53512;BMP280;39392;52.832;13.816;2022-07-30T00:09:03;101491.56;;;24.08
53512;BMP280;39392;52.832;13.816;2022-07-30T00:11:29;101488.16;;;24.06
53512;BMP280;39392;52.832;13.816;2022-07-30T00:13:56;101489.66;;;24.08
53512;BMP280;39392;52.832;13.816;2022-07-30T00:16:22;101488.81;;;24.08
53512;BMP280;39392;52.832;13.816;2022-07-30T00:18:49;101487.78;;;24.09
53512;BMP280;39392;52.832;13.816;2022-07-30T00:21:16;101484.19;;;24.08
53512;BMP280;39392;52.832;13.816;2022-07-30T00:24:02;101479.56;;;24.09
53512;BMP280;39392;52.832;13.816;2022-07-30T00:26:28;101485.03;;;24.09
53512;BMP280;39392;52.832;13.816;2022-07-30T00:28:55;101486.72;;;24.10
53512;BMP280;39392;52.832;13.816;2022-07-30T00:31:21;101486.72;;;24.10
53512;BMP280;39392;52.832;13.816;2022-07-30T00:33:48;101479.34;;;24.10
53512;BMP280;39392;52.832;13.816;2022-07-30T00:36:14;101484.66;;;24.12
53512;BMP280;39392;52.832;13.816;2022-07-30T00:38:42;101478.13;;;24.13
53512;BMP280;39392;52.832;13.816;2022-07-30T00:41:09;101484.47;;;24.14
53512;BMP280;39392;52.832;13.816;2022-07-30T00:43:35;101481.72;;;24.14
53512;BMP280;39392;52.832;13.816;2022-07-30T00:46:02;101478.97;;;24.14
53512;BMP280;39392;52.832;13.816;2022-07-30T00:48:28;101479.34;;;24.10
53512;BMP280;39392;52.832;13.816;2022-07-30T00:50:55;101487.78;;;24.09
53512;BMP280;39392;52.832;13.816;2022-07-30T00:53:22;101486.72;;;24.10
53512;BMP280;39392;52.832;13.816;2022-07-30T00:55:48;101481.47;;;24.08
53512;BMP280;39392;52.832;13.816;2022-07-30T00:58:15;101482.94;;;24.11
53512;BMP280;39392;52.832;13.816;2022-07-30T01:00:41;101486.72;;;24.10
53512;BMP280;39392;52.832;13.816;2022-07-30T01:03:08;101487.56;;;24.10
53512;BMP280;39392;52.832;13.816;2022-07-30T01:05:34;101473.03;;;24.10
53512;BMP280;39392;52.832;13.816;2022-07-30T01:08:01;101477.66;;;24.09
53512;BMP280;39392;52.832;13.816;2022-07-30T01:10:27;101484.00;;;24.10
53512;BMP280;39392;52.832;13.816;2022-07-30T01:12:54;101484.00;;;24.10
53512;BMP280;39392;52.832;13.816;2022-07-30T01:15:24;101479.34;;;24.10
53512;BMP280;39392;52.832;13.816;2022-07-30T01:17:52;101475.78;;;24.10
53512;BMP280;39392;52.832;13.816;2022-07-30T01:20:22;101468.34;;;24.04
53512;BMP280;39392;52.832;13.816;2022-07-30T01:28:29;101477.88;;;24.08
53512;BMP280;39392;52.832;13.816;2022-07-30T01:30:57;101470.03;;;24.05
53512;BMP280;39392;52.832;13.816;2022-07-30T01:33:24;101477.19;;;24.06
53512;BMP280;39392;52.832;13.816;2022-07-30T01:35:50;101474.25;;;24.07
53512;BMP280;39392;52.832;13.816;2022-07-30T01:38:18;101474.25;;;24.07
53512;BMP280;39392;52.832;13.816;2022-07-30T01:40:47;101467.75;;;24.08
53512;BMP280;39392;52.832;13.816;2022-07-30T01:43:15;101468.59;;;24.09
53512;BMP280;39392;52.832;13.816;2022-07-30T01:45:42;101475.31;;;24.06
53512;BMP280;39392;52.832;13.816;2022-07-30T01:48:11;101465.59;;;24.04
53512;BMP280;39392;52.832;13.816;2022-07-30T01:50:39;101470.50;;;24.08
53512;BMP280;39392;52.832;13.816;2022-07-30T01:53:07;101465.03;;;24.08
53512;BMP280;39392;52.832;13.816;2022-07-30T01:55:35;101471.34;;;24.09
53512;BMP280;39392;52.832;13.816;2022-07-30T01:58:05;101468.59;;;24.09
53512;BMP280;39392;52.832;13.816;2022-07-30T02:00:33;101464.19;;;24.08
53512;BMP280;39392;52.832;13.816;2022-07-30T02:03:02;101454.91;;;24.09
53512;BMP280;39392;52.832;13.816;2022-07-30T02:05:30;101454.91;;;24.09
53512;BMP280;39392;52.832;13.816;2022-07-30T02:10:50;101455.56;;;24.11
53512;BMP280;39392;52.832;13.816;2022-07-30T02:13:16;101457.28;;;24.12
53512;BMP280;39392;52.832;13.816;2022-07-30T02:15:49;101442.53;;;24.13
53512;BMP280;39392;52.832;13.816;2022-07-30T02:18:22;101447.16;;;24.13
53512;BMP280;39392;52.832;13.816;2022-07-30T02:21:00;101443.38;;;24.14
53512;BMP280;39392;52.832;13.816;2022-07-30T02:23:40;101448.00;;;24.13
53512;BMP280;39392;52.832;13.816;2022-07-30T02:26:08;101444.44;;;24.13
53512;BMP280;39392;52.832;13.816;2022-07-30T02:28:41;101455.19;;;24.14
53512;BMP280;39392;52.832;13.816;2022-07-30T02:31:09;101456.22;;;24.13
53512;BMP280;39392;52.832;13.816;2022-07-30T02:33:43;101458.97;;;24.13
53512;BMP280;39392;52.832;13.816;2022-07-30T02:36:14;101460.66;;;24.14
53512;BMP280;39392;52.832;13.816;2022-07-30T02:38:41;101455.19;;;24.14
53512;BMP280;39392;52.832;13.816;2022-07-30T02:41:09;101466.13;;;24.14
53512;BMP280;39392;52.832;13.816;2022-07-30T02:43:38;101473.50;;;24.14
53512;BMP280;39392;52.832;13.816;2022-07-30T02:46:06;101460.84;;;24.13
53512;BMP280;39392;52.832;13.816;2022-07-30T02:48:32;101452.44;;;24.14
53512;BMP280;39392;52.832;13.816;2022-07-30T02:51:01;101451.59;;;24.14
53512;BMP280;39392;52.832;13.816;2022-07-30T02:53:29;101454.34;;;24.14
53512;BMP280;39392;52.832;13.816;2022-07-30T02:55:56;101445.06;;;24.15
53512;BMP280;39392;52.832;13.816;2022-07-30T02:58:23;101443.38;;;24.14
53512;BMP280;39392;52.832;13.816;2022-07-30T03:00:51;101440.63;;;24.14
53512;BMP280;39392;52.832;13.816;2022-07-30T03:03:19;101445.28;;;24.13
53512;BMP280;39392;52.832;13.816;2022-07-30T03:05:45;101446.97;;;24.14
53512;BMP280;39392;52.832;13.816;2022-07-30T03:08:15;101433.28;;;24.14
53512;BMP280;39392;52.832;13.816;2022-07-30T03:10:45;101437.06;;;24.13
53512;BMP280;39392;52.832;13.816;2022-07-30T03:13:12;101443.38;;;24.14
53512;BMP280;39392;52.832;13.816;2022-07-30T03:15:41;101436.22;;;24.13
53512;BMP280;39392;52.832;13.816;2022-07-30T03:18:10;101438.94;;;24.13
53512;BMP280;39392;52.832;13.816;2022-07-30T03:20:37;101441.69;;;24.13
53512;BMP280;39392;52.832;13.816;2022-07-30T03:23:04;101438.09;;;24.12
53512;BMP280;39392;52.832;13.816;2022-07-30T03:25:32;101435.38;;;24.12
53512;BMP280;39392;52.832;13.816;2022-07-30T03:28:00;101446.97;;;24.14
53512;BMP280;39392;52.832;13.816;2022-07-30T03:30:27;101438.94;;;24.13
53512;BMP280;39392;52.832;13.816;2022-07-30T03:32:54;101443.38;;;24.14
53512;BMP280;39392;52.832;13.816;2022-07-30T03:35:22;101442.53;;;24.13
53512;BMP280;39392;52.832;13.816;2022-07-30T03:37:56;101437.91;;;24.14
53512;BMP280;39392;52.832;13.816;2022-07-30T03:40:23;101436.84;;;24.15
53512;BMP280;39392;52.832;13.816;2022-07-30T03:42:50;101446.13;;;24.14
53512;BMP280;39392;52.832;13.816;2022-07-30T03:45:16;101442.31;;;24.15
53512;BMP280;39392;52.832;13.816;2022-07-30T03:47:44;101442.16;;;24.16
53512;BMP280;39392;52.832;13.816;2022-07-30T03:50:12;101433.06;;;24.16
53512;BMP280;39392;52.832;13.816;2022-07-30T03:52:39;101437.69;;;24.15
53512;BMP280;39392;52.832;13.816;2022-07-30T03:55:07;101438.75;;;24.14
53512;BMP280;39392;52.832;13.816;2022-07-30T03:57:33;101442.53;;;24.13
53512;BMP280;39392;52.832;13.816;2022-07-30T04:00:01;101442.28;;;24.08
53512;BMP280;39392;52.832;13.816;2022-07-30T04:02:27;101440.97;;;24.04
53512;BMP280;39392;52.832;13.816;2022-07-30T04:04:54;101451.44;;;24.00
53512;BMP280;39392;52.832;13.816;2022-07-30T04:07:20;101456.63;;;23.95
53512;BMP280;39392;52.832;13.816;2022-07-30T04:09:46;101452.19;;;23.94
53512;BMP280;39392;52.832;13.816;2022-07-30T04:12:13;101455.97;;;23.93
53512;BMP280;39392;52.832;13.816;2022-07-30T04:14:41;101455.78;;;23.95
53512;BMP280;39392;52.832;13.816;2022-07-30T04:17:12;101457.66;;;23.94
53512;BMP280;39392;52.832;13.816;2022-07-30T04:20:25;101456.44;;;23.97
53512;BMP280;39392;52.832;13.816;2022-07-30T04:22:33;101457.50;;;23.96
53512;BMP280;39392;52.832;13.816;2022-07-30T04:25:00;101458.16;;;23.98
53512;BMP280;39392;52.832;13.816;2022-07-30T04:27:28;101458.81;;;24.00
53512;BMP280;39392;52.832;13.816;2022-07-30T04:29:56;101458.59;;;24.01
53512;BMP280;39392;52.832;13.816;2022-07-30T04:32:22;101455.88;;;24.01
53512;BMP280;39392;52.832;13.816;2022-07-30T04:34:49;101458.22;;;24.04
53512;BMP280;39392;52.832;13.816;2022-07-30T04:37:16;101459.25;;;24.03
53512;BMP280;39392;52.832;13.816;2022-07-30T04:39:43;101458.59;;;24.01
53512;BMP280;39392;52.832;13.816;2022-07-30T04:42:10;101467.88;;;24.00
53512;BMP280;39392;52.832;13.816;2022-07-30T04:44:37;101469.09;;;23.98
53512;BMP280;39392;52.832;13.816;2022-07-30T04:47:03;101473.47;;;23.92
53512;BMP280;39392;52.832;13.816;2022-07-30T04:49:30;101467.31;;;23.90
53512;BMP280;39392;52.832;13.816;2022-07-30T04:51:58;101470.25;;;23.89
53512;BMP280;39392;52.832;13.816;2022-07-30T04:54:25;101460.34;;;23.88
53512;BMP280;39392;52.832;13.816;2022-07-30T04:56:52;101469.78;;;23.85
53512;BMP280;39392;52.832;13.816;2022-07-30T04:59:20;101469.50;;;23.80
53512;BMP280;39392;52.832;13.816;2022-07-30T05:01:48;101467.81;;;23.79
53512;BMP280;39392;52.832;13.816;2022-07-30T05:04:15;101469.69;;;23.78
53512;BMP280;39392;52.832;13.816;2022-07-30T05:06:43;101473.47;;;23.77
53512;BMP280;39392;52.832;13.816;2022-07-30T05:09:10;101466.94;;;23.78
53512;BMP280;39392;52.832;13.816;2022-07-30T05:11:37;101465.25;;;23.77
53512;BMP280;39392;52.832;13.816;2022-07-30T05:14:03;101464.41;;;23.77
53512;BMP280;39392;52.832;13.816;2022-07-30T05:16:30;101469.03;;;23.76
53512;BMP280;39392;52.832;13.816;2022-07-30T05:18:59;101474.72;;;23.75
53512;BMP280;39392;52.832;13.816;2022-07-30T05:21:26;101462.72;;;23.76
53512;BMP280;39392;52.832;13.816;2022-07-30T05:23:54;101468.56;;;23.73
53512;BMP280;39392;52.832;13.816;2022-07-30T05:26:20;101469.03;;;23.76
53512;BMP280;39392;52.832;13.816;2022-07-30T05:28:52;101477.72;;;23.80
53512;BMP280;39392;52.832;13.816;2022-07-30T05:31:22;101467.81;;;23.79
53512;BMP280;39392;52.832;13.816;2022-07-30T05:33:50;101471.00;;;23.82
53512;BMP280;39392;52.832;13.816;2022-07-30T05:36:17;101462.34;;;23.79
53512;BMP280;39392;52.832;13.816;2022-07-30T05:38:43;101468.47;;;23.81
53512;BMP280;39392;52.832;13.816;2022-07-30T05:41:09;101467.63;;;23.80
53512;BMP280;39392;52.832;13.816;2022-07-30T05:43:56;101466.56;;;23.81
53512;BMP280;39392;52.832;13.816;2022-07-30T05:46:22;101474.78;;;23.81
53512;BMP280;39392;52.832;13.816;2022-07-30T05:48:49;101462.78;;;23.82
53512;BMP280;39392;52.832;13.816;2022-07-30T05:51:16;101469.13;;;23.83
53512;BMP280;39392;52.832;13.816;2022-07-30T05:53:43;101472.03;;;23.81
53512;BMP280;39392;52.832;13.816;2022-07-30T05:56:10;101472.03;;;23.81
53512;BMP280;39392;52.832;13.816;2022-07-30T05:58:37;101469.31;;;23.81
53512;BMP280;39392;52.832;13.816;2022-07-30T06:01:03;101464.69;;;23.82
53512;BMP280;39392;52.832;13.816;2022-07-30T06:03:29;101476.47;;;23.82
53512;BMP280;39392;52.832;13.816;2022-07-30T06:05:56;101474.63;;;23.83
53512;BMP280;39392;52.832;13.816;2022-07-30T06:08:22;101472.72;;;23.83
53512;BMP280;39392;52.832;13.816;2022-07-30T06:10:49;101467.03;;;23.85
53512;BMP280;39392;52.832;13.816;2022-07-30T06:13:15;101468.09;;;23.84
53512;BMP280;39392;52.832;13.816;2022-07-30T06:15:43;101472.72;;;23.83
53512;BMP280;39392;52.832;13.816;2022-07-30T06:18:09;101476.31;;;23.84
53512;BMP280;39392;52.832;13.816;2022-07-30T06:20:36;101470.81;;;23.84
53512;BMP280;39392;52.832;13.816;2022-07-30T06:23:03;101468.94;;;23.84
53512;BMP280;39392;52.832;13.816;2022-07-30T06:25:30;101474.88;;;23.88
53512;BMP280;39392;52.832;13.816;2022-07-30T06:27:56;101474.88;;;23.88
53512;BMP280;39392;52.832;13.816;2022-07-30T06:30:35;101475.06;;;23.86
53512;BMP280;39392;52.832;13.816;2022-07-30T06:33:02;101474.88;;;23.88
53512;BMP280;39392;52.832;13.816;2022-07-30T06:35:28;101476.56;;;23.89
53512;BMP280;39392;52.832;13.816;2022-07-30T06:37:55;101477.03;;;23.93
53512;BMP280;39392;52.832;13.816;2022-07-30T06:40:33;101476.47;;;23.97
53512;BMP280;39392;52.832;13.816;2022-07-30T06:42:59;101477.09;;;23.99
53512;BMP280;39392;52.832;13.816;2022-07-30T06:45:26;101485.31;;;23.99
53512;BMP280;39392;52.832;13.816;2022-07-30T06:47:56;101486.38;;;23.98
53512;BMP280;39392;52.832;13.816;2022-07-30T06:50:22;101480.72;;;24.00
53512;BMP280;39392;52.832;13.816;2022-07-30T06:52:48;101485.16;;;24.01
53512;BMP280;39392;52.832;13.816;2022-07-30T06:55:15;101487.03;;;24.00
53512;BMP280;39392;52.832;13.816;2022-07-30T06:57:41;101489.56;;;24.02
53512;BMP280;39392;52.832;13.816;2022-07-30T07:00:08;101495.72;;;24.04
53512;BMP280;39392;52.832;13.816;2022-07-30T07:02:35;101495.53;;;24.05
53512;BMP280;39392;52.832;13.816;2022-07-30T07:05:02;101487.94;;;24.07
53512;BMP280;39392;52.832;13.816;2022-07-30T07:07:28;101494.09;;;24.09
53512;BMP280;39392;52.832;13.816;2022-07-30T07:10:06;101494.75;;;24.11
53512;BMP280;39392;52.832;13.816;2022-07-30T07:12:33;101500.91;;;24.14
53512;BMP280;39392;52.832;13.816;2022-07-30T07:15:00;101492.31;;;24.17
53512;BMP280;39392;52.832;13.816;2022-07-30T07:17:27;101496.72;;;24.18
53512;BMP280;39392;52.832;13.816;2022-07-30T07:19:53;101496.94;;;24.16
53512;BMP280;39392;52.832;13.816;2022-07-30T07:22:25;101497.56;;;24.18
53512;BMP280;39392;52.832;13.816;2022-07-30T07:24:52;101503.91;;;24.19
53512;BMP280;39392;52.832;13.816;2022-07-30T07:27:18;101511.06;;;24.20
53512;BMP280;39392;52.832;13.816;2022-07-30T07:29:45;101504.94;;;24.18
53512;BMP280;39392;52.832;13.816;2022-07-30T07:32:31;101494.00;;;24.18
53512;BMP280;39392;52.832;13.816;2022-07-30T07:34:58;101498.63;;;24.17
53512;BMP280;39392;52.832;13.816;2022-07-30T07:37:24;101494.84;;;24.18
53512;BMP280;39392;52.832;13.816;2022-07-30T07:39:51;101497.56;;;24.18
53512;BMP280;39392;52.832;13.816;2022-07-30T07:42:17;101501.81;;;24.21
53512;BMP280;39392;52.832;13.816;2022-07-30T07:44:44;101496.34;;;24.21
53512;BMP280;39392;52.832;13.816;2022-07-30T07:47:10;101504.38;;;24.22
53512;BMP280;39392;52.832;13.816;2022-07-30T07:49:37;101500.41;;;24.25
53512;BMP280;39392;52.832;13.816;2022-07-30T07:52:03;101499.34;;;24.26
53512;BMP280;39392;52.832;13.816;2022-07-30T07:54:30;101499.16;;;24.27
53512;BMP280;39392;52.832;13.816;2022-07-30T07:56:56;101495.38;;;24.28
53512;BMP280;39392;52.832;13.816;2022-07-30T07:59:24;101500.84;;;24.28
53512;BMP280;39392;52.832;13.816;2022-07-30T08:02:05;101492.44;;;24.30
53512;BMP280;39392;52.832;13.816;2022-07-30T08:04:33;101496.66;;;24.32
53512;BMP280;39392;52.832;13.816;2022-07-30T08:07:00;101501.50;;;24.30
53512;BMP280;39392;52.832;13.816;2022-07-30T08:09:27;101497.34;;;24.34
53512;BMP280;39392;52.832;13.816;2022-07-30T08:12:09;101494.69;;;24.41
53512;BMP280;39392;52.832;13.816;2022-07-30T08:14:36;101498.94;;;24.44
53512;BMP280;39392;52.832;13.816;2022-07-30T08:17:02;101497.50;;;24.48
53512;BMP280;39392;52.832;13.816;2022-07-30T08:19:30;101501.94;;;24.49
53512;BMP280;39392;52.832;13.816;2022-07-30T08:21:56;101496.66;;;24.47
53512;BMP280;39392;52.832;13.816;2022-07-30T08:24:24;101500.47;;;24.46
53512;BMP280;39392;52.832;13.816;2022-07-30T08:26:51;101503.19;;;24.46
53512;BMP280;39392;52.832;13.816;2022-07-30T08:29:18;101504.03;;;24.47
53512;BMP280;39392;52.832;13.816;2022-07-30T08:31:44;101505.09;;;24.46
53512;BMP280;39392;52.832;13.816;2022-07-30T08:34:10;101497.91;;;24.45
53512;BMP280;39392;52.832;13.816;2022-07-30T08:36:38;101502.16;;;24.47
53512;BMP280;39392;52.832;13.816;2022-07-30T08:39:05;101493.94;;;24.47
53512;BMP280;39392;52.832;13.816;2022-07-30T08:41:32;101496.66;;;24.47
53512;BMP280;39392;52.832;13.816;2022-07-30T08:43:59;101499.41;;;24.47
53512;BMP280;39392;52.832;13.816;2022-07-30T08:46:28;101503.84;;;24.48
53512;BMP280;39392;52.832;13.816;2022-07-30T08:48:56;101499.66;;;24.52
53512;BMP280;39392;52.832;13.816;2022-07-30T08:51:22;101507.31;;;24.57
53512;BMP280;39392;52.832;13.816;2022-07-30T08:53:49;101504.56;;;24.57
53512;BMP280;39392;52.832;13.816;2022-07-30T08:56:16;101503.81;;;24.63
53512;BMP280;39392;52.832;13.816;2022-07-30T08:58:43;101506.34;;;24.65
53512;BMP280;39392;52.832;13.816;2022-07-30T09:01:10;101507.19;;;24.65
53512;BMP280;39392;52.832;13.816;2022-07-30T09:03:37;101508.03;;;24.66
53512;BMP280;39392;52.832;13.816;2022-07-30T09:06:10;101503.59;;;24.65
53512;BMP280;39392;52.832;13.816;2022-07-30T09:08:36;101505.28;;;24.66
53512;BMP280;39392;52.832;13.816;2022-07-30T09:11:03;101505.28;;;24.66
53512;BMP280;39392;52.832;13.816;2022-07-30T09:13:33;101497.91;;;24.66
53512;BMP280;39392;52.832;13.816;2022-07-30T09:16:00;101501.69;;;24.65
53512;BMP280;39392;52.832;13.816;2022-07-30T09:20:54;101507.38;;;24.64
53512;BMP280;39392;52.832;13.816;2022-07-30T09:23:20;101502.97;;;24.63
53512;BMP280;39392;52.832;13.816;2022-07-30T09:25:47;101501.44;;;24.60
53512;BMP280;39392;52.832;13.816;2022-07-30T09:28:14;101502.06;;;24.62
53512;BMP280;39392;52.832;13.816;2022-07-30T09:33:10;101503.81;;;24.63
53512;BMP280;39392;52.832;13.816;2022-07-30T09:35:37;101505.69;;;24.63
53512;BMP280;39392;52.832;13.816;2022-07-30T09:38:04;101503.13;;;24.61
53512;BMP280;39392;52.832;13.816;2022-07-30T09:40:32;101499.16;;;24.64
53512;BMP280;39392;52.832;13.816;2022-07-30T09:43:06;101504.81;;;24.62
53512;BMP280;39392;52.832;13.816;2022-07-30T09:45:33;101495.13;;;24.59
53512;BMP280;39392;52.832;13.816;2022-07-30T09:48:01;101494.06;;;24.60
53512;BMP280;39392;52.832;13.816;2022-07-30T09:50:28;101494.91;;;24.61
53512;BMP280;39392;52.832;13.816;2022-07-30T09:53:06;101497.66;;;24.61
53512;BMP280;39392;52.832;13.816;2022-07-30T09:55:35;101496.81;;;24.60
53512;BMP280;39392;52.832;13.816;2022-07-30T09:58:07;101495.97;;;24.60
53512;BMP280;39392;52.832;13.816;2022-07-30T10:00:35;101494.06;;;24.60
53512;BMP280;39392;52.832;13.816;2022-07-30T10:03:24;101503.13;;;24.61
53512;BMP280;39392;52.832;13.816;2022-07-30T10:06:03;101503.97;;;24.62
53512;BMP280;39392;52.832;13.816;2022-07-30T10:08:49;101494.91;;;24.61
53512;BMP280;39392;52.832;13.816;2022-07-30T10:11:19;101492.16;;;24.61
53512;BMP280;39392;52.832;13.816;2022-07-30T10:13:52;101488.59;;;24.60
53512;BMP280;39392;52.832;13.816;2022-07-30T10:16:20;101498.50;;;24.62
53512;BMP280;39392;52.832;13.816;2022-07-30T10:18:49;101488.59;;;24.60
53512;BMP280;39392;52.832;13.816;2022-07-30T10:21:16;101490.28;;;24.62
53512;BMP280;39392;52.832;13.816;2022-07-30T10:23:44;101492.38;;;24.59
53512;BMP280;39392;52.832;13.816;2022-07-30T10:26:15;101492.38;;;24.59
53512;BMP280;39392;52.832;13.816;2022-07-30T10:28:43;101495.13;;;24.59
53512;BMP280;39392;52.832;13.816;2022-07-30T10:31:11;101489.63;;;24.59
53512;BMP280;39392;52.832;13.816;2022-07-30T10:33:58;101490.69;;;24.58
53512;BMP280;39392;52.832;13.816;2022-07-30T10:36:25;101485.38;;;24.57
53512;BMP280;39392;52.832;13.816;2022-07-30T10:38:52;101488.13;;;24.57
53512;BMP280;39392;52.832;13.816;2022-07-30T10:47:03;101484.91;;;24.53
53512;BMP280;39392;52.832;13.816;2022-07-30T10:49:33;101489.16;;;24.56
53512;BMP280;39392;52.832;13.816;2022-07-30T10:52:08;101493.81;;;24.55
53512;BMP280;39392;52.832;13.816;2022-07-30T10:54:36;101489.16;;;24.56
53512;BMP280;39392;52.832;13.816;2022-07-30T11:02:18;101484.75;;;24.55
53512;BMP280;39392;52.832;13.816;2022-07-30T11:07:41;101493.81;;;24.55
53512;BMP280;39392;52.832;13.816;2022-07-30T11:12:58;101485.59;;;24.55
53512;BMP280;39392;52.832;13.816;2022-07-30T11:15:30;101478.00;;;24.57
53512;BMP280;39392;52.832;13.816;2022-07-30T11:18:13;101476.31;;;24.56
53512;BMP280;39392;52.832;13.816;2022-07-30T11:20:40;101484.34;;;24.58
53512;BMP280;39392;52.832;13.816;2022-07-30T11:25:50;101483.31;;;24.59
53512;BMP280;39392;52.832;13.816;2022-07-30T11:34:28;101483.91;;;24.54
53512;BMP280;39392;52.832;13.816;2022-07-30T11:37:14;101483.22;;;24.52
53512;BMP280;39392;52.832;13.816;2022-07-30T11:42:27;101486.44;;;24.56
53512;BMP280;39392;52.832;13.816;2022-07-30T11:47:57;101485.13;;;24.52
53512;BMP280;39392;52.832;13.816;2022-07-30T11:50:32;101488.53;;;24.54
53512;BMP280;39392;52.832;13.816;2022-07-30T11:53:00;101481.16;;;24.54
53512;BMP280;39392;52.832;13.816;2022-07-30T11:58:03;101485.97;;;24.52
53512;BMP280;39392;52.832;13.816;2022-07-30T12:00:34;101486.81;;;24.53
53512;BMP280;39392;52.832;13.816;2022-07-30T12:03:05;101483.91;;;24.54
53512;BMP280;39392;52.832;13.816;2022-07-30T12:05:32;101487.47;;;24.55
53512;BMP280;39392;52.832;13.816;2022-07-30T12:07:59;101481.34;;;24.53
53512;BMP280;39392;52.832;13.816;2022-07-30T12:10:25;101493.13;;;24.53
53512;BMP280;39392;52.832;13.816;2022-07-30T12:12:53;101493.81;;;24.55
53512;BMP280;39392;52.832;13.816;2022-07-30T12:15:34;101490.84;;;24.57
53512;BMP280;39392;52.832;13.816;2022-07-30T12:18:00;101497.41;;;24.56
53512;BMP280;39392;52.832;13.816;2022-07-30T12:20:57;101487.28;;;24.56
53512;BMP280;39392;52.832;13.816;2022-07-30T12:23:25;101487.47;;;24.55
53512;BMP280;39392;52.832;13.816;2022-07-30T12:25:52;101491.28;;;24.54
53512;BMP280;39392;52.832;13.816;2022-07-30T12:28:19;101487.88;;;24.52
53512;BMP280;39392;52.832;13.816;2022-07-30T12:30:46;101493.13;;;24.53
53512;BMP280;39392;52.832;13.816;2022-07-30T12:33:13;101492.97;;;24.55
53512;BMP280;39392;52.832;13.816;2022-07-30T12:38:09;101493.59;;;24.57
53512;BMP280;39392;52.832;13.816;2022-07-30T12:40:49;101492.59;;;24.58
53512;BMP280;39392;52.832;13.816;2022-07-30T12:43:15;101495.31;;;24.58
53512;BMP280;39392;52.832;13.816;2022-07-30T12:45:42;101489.84;;;24.58
53512;BMP280;39392;52.832;13.816;2022-07-30T12:48:19;101496.16;;;24.58
53512;BMP280;39392;52.832;13.816;2022-07-30T12:50:47;101487.94;;;24.58
53512;BMP280;39392;52.832;13.816;2022-07-30T12:53:13;101491.72;;;24.57
53512;BMP280;39392;52.832;13.816;2022-07-30T12:55:40;101494.28;;;24.59
53512;BMP280;39392;52.832;13.816;2022-07-30T12:58:06;101494.28;;;24.59
53512;BMP280;39392;52.832;13.816;2022-07-30T13:05:46;101487.53;;;24.62
53512;BMP280;39392;52.832;13.816;2022-07-30T13:08:13;101485.00;;;24.60
53512;BMP280;39392;52.832;13.816;2022-07-30T13:10:53;101488.59;;;24.60
53512;BMP280;39392;52.832;13.816;2022-07-30T13:13:19;101485.19;;;24.58
53512;BMP280;39392;52.832;13.816;2022-07-30T13:15:55;101480.56;;;24.59
53512;BMP280;39392;52.832;13.816;2022-07-30T13:18:22;101484.16;;;24.59
53512;BMP280;39392;52.832;13.816;2022-07-30T13:20:48;101484.16;;;24.59
53512;BMP280;39392;52.832;13.816;2022-07-30T13:23:14;101486.88;;;24.59
53512;BMP280;39392;52.832;13.816;2022-07-30T13:25:42;101481.63;;;24.58
53512;BMP280;39392;52.832;13.816;2022-07-30T13:28:08;101481.63;;;24.58
53512;BMP280;39392;52.832;13.816;2022-07-30T13:30:35;101483.31;;;24.59
53512;BMP280;39392;52.832;13.816;2022-07-30T13:33:01;101478.88;;;24.58
53512;BMP280;39392;52.832;13.816;2022-07-30T13:35:27;101483.31;;;24.59
53512;BMP280;39392;52.832;13.816;2022-07-30T13:37:54;101478.88;;;24.58
53512;BMP280;39392;52.832;13.816;2022-07-30T13:40:22;101479.72;;;24.58
53512;BMP280;39392;52.832;13.816;2022-07-30T13:42:48;101475.09;;;24.59
53512;BMP280;39392;52.832;13.816;2022-07-30T13:45:15;101483.09;;;24.60
53512;BMP280;39392;52.832;13.816;2022-07-30T13:47:41;101476.78;;;24.60
53512;BMP280;39392;52.832;13.816;2022-07-30T13:50:08;101482.25;;;24.60
53512;BMP280;39392;52.832;13.816;2022-07-30T13:52:35;101484.16;;;24.59
53512;BMP280;39392;52.832;13.816;2022-07-30T13:55:01;101485.00;;;24.60
53512;BMP280;39392;52.832;13.816;2022-07-30T13:57:28;101482.47;;;24.58
53512;BMP280;39392;52.832;13.816;2022-07-30T13:59:54;101473.41;;;24.58
53512;BMP280;39392;52.832;13.816;2022-07-30T14:02:21;101478.88;;;24.58
53512;BMP280;39392;52.832;13.816;2022-07-30T14:04:47;101474.41;;;24.57
53512;BMP280;39392;52.832;13.816;2022-07-30T14:07:14;101473.41;;;24.58
53512;BMP280;39392;52.832;13.816;2022-07-30T14:09:41;101475.94;;;24.59
53512;BMP280;39392;52.832;13.816;2022-07-30T14:12:13;101474.88;;;24.60
53512;BMP280;39392;52.832;13.816;2022-07-30T14:14:39;101466.66;;;24.60
53512;BMP280;39392;52.832;13.816;2022-07-30T14:17:06;101459.28;;;24.61
53512;BMP280;39392;52.832;13.816;2022-07-30T14:19:32;101461.84;;;24.63
53512;BMP280;39392;52.832;13.816;2022-07-30T14:21:58;101459.09;;;24.63
53512;BMP280;39392;52.832;13.816;2022-07-30T14:24:25;101460.97;;;24.62
53512;BMP280;39392;52.832;13.816;2022-07-30T14:26:51;101462.69;;;24.63
53512;BMP280;39392;52.832;13.816;2022-07-30T14:29:23;101463.91;;;24.60
53512;BMP280;39392;52.832;13.816;2022-07-30T14:31:50;101470.25;;;24.61
53512;BMP280;39392;52.832;13.816;2022-07-30T14:34:16;101461.84;;;24.63
53512;BMP280;39392;52.832;13.816;2022-07-30T14:36:44;101464.75;;;24.61
53512;BMP280;39392;52.832;13.816;2022-07-30T14:39:10;101462.03;;;24.61
53512;BMP280;39392;52.832;13.816;2022-07-30T14:41:37;101461.84;;;24.63
53512;BMP280;39392;52.832;13.816;2022-07-30T14:44:04;101469.19;;;24.62
53512;BMP280;39392;52.832;13.816;2022-07-30T14:46:30;101461.84;;;24.63